createdAt,value
2022-10-31T00:01:33.323Z,40.50
2022-10-31T00:04:01.814Z,35.30
2022-10-31T00:06:29.937Z,37.10
2022-10-31T00:09:01.528Z,39.70
2022-10-31T00:11:30.118Z,36.40
2022-10-31T00:13:59.943Z,41.90
2022-10-31T00:16:29.126Z,36.40
2022-10-31T00:19:00.513Z,37.00
2022-10-31T00:21:29.401Z,38.10
2022-10-31T00:23:59.499Z,39.80
2022-10-31T00:26:28.894Z,43.90
2022-10-31T00:28:58.493Z,34.10
2022-10-31T00:31:26.533Z,38.50
2022-10-31T00:33:54.779Z,39.40
2022-10-31T00:36:22.728Z,37.90
2022-10-31T00:38:50.664Z,35.50
2022-10-31T00:41:19.051Z,36.80
2022-10-31T00:43:47.108Z,36.10
2022-10-31T00:46:15.680Z,34.60
2022-10-31T00:48:43.768Z,35.10
2022-10-31T00:51:11.723Z,32.40
2022-10-31T00:53:41.331Z,35.00
2022-10-31T00:56:09.655Z,34.40
2022-10-31T00:58:37.641Z,34.30
2022-10-31T01:01:06.144Z,34.20
2022-10-31T01:03:36.946Z,32.00
2022-10-31T01:06:10.786Z,28.20
2022-10-31T01:08:39.723Z,32.10
2022-10-31T01:11:17.879Z,34.50
2022-10-31T01:13:46.603Z,28.70
2022-10-31T01:16:17.004Z,28.40
2022-10-31T01:18:45.257Z,31.60
2022-10-31T01:21:16.345Z,28.80
2022-10-31T01:23:44.610Z,27.80
2022-10-31T01:26:18.522Z,32.00
2022-10-31T01:29:07.802Z,29.90
2022-10-31T01:31:39.756Z,30.50
2022-10-31T01:34:08.183Z,31.10
2022-10-31T01:36:38.696Z,31.60
2022-10-31T01:39:16.081Z,28.50
2022-10-31T01:41:49.896Z,31.40
2022-10-31T01:44:18.288Z,28.40
2022-10-31T01:46:52.949Z,29.30
2022-10-31T01:49:30.294Z,26.90
2022-10-31T01:52:30.424Z,23.90
2022-10-31T01:55:16.337Z,24.60
2022-10-31T01:57:49.454Z,23.80
2022-10-31T02:00:21.364Z,23.30
2022-10-31T02:02:51.299Z,26.80
2022-10-31T02:05:24.276Z,26.60
2022-10-31T02:08:08.632Z,26.60
2022-10-31T02:10:38.320Z,25.60
2022-10-31T02:13:10.025Z,24.80
2022-10-31T02:15:46.601Z,24.90
2022-10-31T02:18:14.790Z,26.40
2022-10-31T02:21:05.751Z,25.10
2022-10-31T02:24:17.694Z,26.30
2022-10-31T02:27:10.586Z,25.60
2022-10-31T02:29:57.763Z,23.80
2022-10-31T02:32:51.680Z,27.10
2022-10-31T02:35:48.048Z,28.80
2022-10-31T02:38:29.155Z,28.20
2022-10-31T02:41:19.284Z,25.70
2022-10-31T02:44:14.631Z,25.70
2022-10-31T02:47:07.582Z,24.10
2022-10-31T02:49:47.660Z,26.00
2022-10-31T02:52:25.872Z,24.20
2022-10-31T02:54:54.431Z,24.00
2022-10-31T02:57:26.928Z,25.10
2022-10-31T02:59:59.842Z,24.70
2022-10-31T03:02:43.252Z,27.00
2022-10-31T03:05:20.555Z,28.30
2022-10-31T03:08:04.190Z,25.20
2022-10-31T03:10:54.647Z,22.70
2022-10-31T03:13:33.490Z,19.60
2022-10-31T03:16:14.108Z,28.30
2022-10-31T03:18:50.723Z,25.90
2022-10-31T03:21:29.313Z,26.20
2022-10-31T03:23:58.923Z,24.90
2022-10-31T03:26:27.059Z,22.60
2022-10-31T03:29:08.605Z,24.20
2022-10-31T03:31:52.997Z,22.20
2022-10-31T03:34:23.159Z,26.40
2022-10-31T03:36:55.767Z,25.20
2022-10-31T03:39:25.479Z,30.60
2022-10-31T03:42:00.563Z,31.40
2022-10-31T03:44:30.924Z,27.90
2022-10-31T03:47:02.617Z,25.30
2022-10-31T03:49:33.596Z,22.40
2022-10-31T03:52:19.540Z,20.90
2022-10-31T03:55:01.179Z,25.30
2022-10-31T03:57:41.173Z,24.40
2022-10-31T04:00:12.397Z,23.10
2022-10-31T04:02:59.514Z,26.20
2022-10-31T04:05:29.998Z,29.00
2022-10-31T04:08:03.705Z,28.50
2022-10-31T04:10:35.735Z,22.60
2022-10-31T04:13:11.108Z,25.30
2022-10-31T04:15:55.267Z,22.30
2022-10-31T04:18:25.208Z,22.00
2022-10-31T04:21:06.005Z,22.00
2022-10-31T04:23:36.113Z,23.30
2022-10-31T04:26:14.090Z,21.00
2022-10-31T04:28:45.460Z,21.10
2022-10-31T04:31:13.875Z,22.20
2022-10-31T04:33:42.271Z,21.20
2022-10-31T04:36:10.649Z,20.70
2022-10-31T04:38:38.901Z,18.40
2022-10-31T04:41:15.207Z,21.60
2022-10-31T04:44:18.608Z,19.20
2022-10-31T04:46:49.584Z,25.00
2022-10-31T04:49:18.086Z,20.90
2022-10-31T04:51:46.096Z,22.70
2022-10-31T04:54:15.198Z,22.30
2022-10-31T04:57:06.168Z,24.00
2022-10-31T04:59:34.372Z,21.40
2022-10-31T05:02:02.244Z,23.50
2022-10-31T05:04:43.838Z,22.60
2022-10-31T05:07:11.702Z,23.80
2022-10-31T05:09:39.867Z,24.60
2022-10-31T05:12:07.984Z,25.30
2022-10-31T05:14:54.396Z,22.80
2022-10-31T05:17:41.590Z,24.00
2022-10-31T05:20:48.019Z,19.00
2022-10-31T05:23:36.501Z,20.60
2022-10-31T05:26:05.814Z,18.90
2022-10-31T05:28:34.516Z,17.70
2022-10-31T05:31:02.733Z,21.10
2022-10-31T05:33:30.732Z,17.20
2022-10-31T05:36:17.709Z,20.00
2022-10-31T05:39:14.908Z,19.20
2022-10-31T05:41:49.105Z,19.70
2022-10-31T05:44:21.604Z,19.30
2022-10-31T05:47:08.442Z,20.20
2022-10-31T05:50:11.616Z,21.00
2022-10-31T05:52:39.620Z,17.10
2022-10-31T05:55:29.392Z,18.30
2022-10-31T05:58:05.143Z,17.90
2022-10-31T06:00:36.096Z,19.90
2022-10-31T06:05:55.452Z,18.30
2022-10-31T06:08:25.910Z,18.30
2022-10-31T06:10:54.866Z,18.30
2022-10-31T06:13:32.056Z,18.80
2022-10-31T06:16:11.643Z,19.30
2022-10-31T06:18:40.591Z,17.40
2022-10-31T06:21:10.094Z,17.60
2022-10-31T06:23:39.013Z,18.40
2022-10-31T06:26:26.456Z,17.80
2022-10-31T06:28:54.475Z,17.60
2022-10-31T06:31:36.987Z,17.40
2022-10-31T06:34:04.849Z,19.20
2022-10-31T06:36:32.867Z,14.80
2022-10-31T06:39:02.348Z,16.40
2022-10-31T06:41:30.503Z,18.10
2022-10-31T06:44:00.585Z,18.00
2022-10-31T06:46:57.096Z,16.70
2022-10-31T06:49:33.792Z,15.90
2022-10-31T06:52:04.638Z,17.90
2022-10-31T06:54:33.299Z,21.50
2022-10-31T06:57:01.172Z,18.50
2022-10-31T06:59:30.273Z,17.10
2022-10-31T07:02:21.167Z,18.30
2022-10-31T07:04:50.110Z,16.80
2022-10-31T07:07:19.070Z,18.00
2022-10-31T07:09:47.124Z,15.60
2022-10-31T07:12:17.870Z,15.30
2022-10-31T07:14:53.255Z,14.90
2022-10-31T07:17:29.725Z,15.80
2022-10-31T07:19:59.397Z,15.20
2022-10-31T07:22:34.917Z,15.70
2022-10-31T07:25:04.744Z,13.40
2022-10-31T07:27:56.891Z,12.80
2022-10-31T07:30:25.646Z,14.80
2022-10-31T07:32:56.595Z,15.40
2022-10-31T07:35:29.056Z,15.00
2022-10-31T07:38:07.310Z,13.90
2022-10-31T07:40:35.768Z,13.80
2022-10-31T07:43:14.822Z,16.40
2022-10-31T07:46:12.659Z,16.20
2022-10-31T07:48:58.899Z,17.30
2022-10-31T07:51:46.735Z,15.30
2022-10-31T07:54:33.951Z,17.50
2022-10-31T07:57:02.179Z,17.90
2022-10-31T07:59:30.079Z,17.30
2022-10-31T08:02:00.616Z,15.60
2022-10-31T08:04:49.194Z,14.80
2022-10-31T08:07:38.512Z,14.70
2022-10-31T08:10:07.844Z,16.40
2022-10-31T08:12:38.533Z,16.60
2022-10-31T08:15:21.700Z,15.90
2022-10-31T08:17:49.783Z,15.80
2022-10-31T08:20:20.403Z,17.70
2022-10-31T08:23:10.082Z,19.20
2022-10-31T08:25:39.264Z,18.20
2022-10-31T08:28:09.534Z,16.10
2022-10-31T08:30:39.125Z,18.30
2022-10-31T08:33:26.268Z,15.30
2022-10-31T08:36:17.335Z,15.60
2022-10-31T08:39:02.126Z,15.00
2022-10-31T08:41:31.712Z,17.50
2022-10-31T08:44:00.836Z,16.70
2022-10-31T08:46:28.996Z,17.30
2022-10-31T08:48:57.026Z,19.60
2022-10-31T08:51:25.070Z,15.00
2022-10-31T08:53:55.502Z,21.10
2022-10-31T08:56:46.566Z,15.60
2022-10-31T08:59:31.969Z,16.00
2022-10-31T09:02:19.104Z,14.70
2022-10-31T09:04:47.658Z,17.40
2022-10-31T09:07:20.451Z,17.90
2022-10-31T09:09:49.709Z,17.30
2022-10-31T09:12:18.787Z,15.30
2022-10-31T09:15:26.374Z,14.80
2022-10-31T09:18:00.586Z,16.10
2022-10-31T09:20:45.039Z,16.30
2022-10-31T09:23:22.497Z,17.70
2022-10-31T09:25:52.515Z,18.80
2022-10-31T09:28:38.525Z,17.40
2022-10-31T09:31:11.598Z,18.50
2022-10-31T09:33:56.184Z,18.20
2022-10-31T09:36:45.622Z,19.50
2022-10-31T09:39:20.502Z,20.00
2022-10-31T09:42:24.049Z,17.80
2022-10-31T09:45:12.238Z,18.40
2022-10-31T09:48:08.636Z,22.50
2022-10-31T09:50:48.659Z,19.70
2022-10-31T09:53:50.653Z,22.70
2022-10-31T09:56:23.779Z,24.60
2022-10-31T09:59:02.101Z,21.80
2022-10-31T10:01:47.680Z,19.00
2022-10-31T10:04:29.589Z,21.50
2022-10-31T10:07:29.120Z,22.20
2022-10-31T10:10:58.952Z,23.30
2022-10-31T10:14:06.048Z,22.30
2022-10-31T10:17:05.432Z,25.70
2022-10-31T10:19:42.445Z,28.30
2022-10-31T10:22:28.384Z,25.00
2022-10-31T10:25:11.830Z,29.80
2022-10-31T10:27:46.536Z,23.40
2022-10-31T10:30:21.518Z,30.00
2022-10-31T10:32:52.253Z,30.10
2022-10-31T10:35:24.108Z,30.60
2022-10-31T10:38:20.133Z,29.00
2022-10-31T10:40:48.591Z,27.60
2022-10-31T10:43:30.965Z,30.80
2022-10-31T10:46:39.562Z,28.30
2022-10-31T10:49:23.284Z,28.80
2022-10-31T10:55:23.437Z,27.50
2022-10-31T10:58:04.519Z,25.80
2022-10-31T11:00:37.243Z,36.00
2022-10-31T11:03:06.614Z,29.00
2022-10-31T11:05:37.906Z,30.10
2022-10-31T11:08:07.088Z,30.30
2022-10-31T11:10:36.221Z,28.10
2022-10-31T11:13:22.577Z,31.10
2022-10-31T11:16:12.612Z,35.30
2022-10-31T11:18:47.161Z,35.90
2022-10-31T11:21:36.044Z,37.30
2022-10-31T11:24:36.930Z,33.90
2022-10-31T11:27:30.620Z,35.60
2022-10-31T11:30:09.218Z,38.80
2022-10-31T11:32:54.290Z,43.10
2022-10-31T11:35:26.815Z,42.90
2022-10-31T11:38:01.314Z,40.90
2022-10-31T11:41:12.873Z,46.20
2022-10-31T11:44:06.079Z,37.10
2022-10-31T11:46:39.854Z,38.10
2022-10-31T11:49:55.313Z,42.50
2022-10-31T11:52:32.733Z,41.40
2022-10-31T11:55:25.507Z,46.10
2022-10-31T11:58:08.281Z,43.70
2022-10-31T12:00:42.989Z,41.40
2022-10-31T12:03:23.433Z,40.80
2022-10-31T12:06:19.772Z,41.20
2022-10-31T12:08:48.076Z,51.00
2022-10-31T12:11:36.731Z,45.20
2022-10-31T12:14:11.073Z,45.00
2022-10-31T12:17:05.550Z,48.00
2022-10-31T12:19:46.359Z,45.80
2022-10-31T12:22:51.014Z,47.90
2022-10-31T12:25:46.848Z,42.80
2022-10-31T12:28:55.164Z,49.80
2022-10-31T12:31:45.829Z,50.30
2022-10-31T12:34:47.722Z,46.10
2022-10-31T12:37:33.207Z,39.40
2022-10-31T12:40:11.792Z,48.00
2022-10-31T12:42:55.276Z,44.80
2022-10-31T12:45:40.913Z,49.80
2022-10-31T12:48:18.405Z,47.20
2022-10-31T12:50:49.563Z,51.90
2022-10-31T12:53:29.637Z,49.20
2022-10-31T12:56:24.940Z,45.30
2022-10-31T12:59:05.184Z,48.00
2022-10-31T13:01:42.260Z,49.60
2022-10-31T13:04:20.037Z,54.40
2022-10-31T13:07:16.965Z,55.90
2022-10-31T13:10:04.109Z,48.30
2022-10-31T13:12:37.326Z,55.70
2022-10-31T13:15:16.164Z,51.50
2022-10-31T13:17:49.559Z,55.70
2022-10-31T13:20:27.178Z,51.60
2022-10-31T13:23:17.635Z,53.80
2022-10-31T13:25:56.255Z,54.30
2022-10-31T13:28:35.496Z,62.30
2022-10-31T13:31:03.805Z,57.20
2022-10-31T13:33:42.065Z,54.30
2022-10-31T13:36:21.180Z,50.30
2022-10-31T13:38:55.670Z,54.70
2022-10-31T13:41:54.511Z,60.30
2022-10-31T13:44:25.395Z,56.40
2022-10-31T13:46:56.212Z,62.90
2022-10-31T13:49:30.046Z,54.60
2022-10-31T13:52:10.796Z,57.00
2022-10-31T13:54:39.998Z,57.70
2022-10-31T13:57:17.922Z,55.60
2022-10-31T13:59:59.209Z,63.50
2022-10-31T14:02:36.647Z,58.80
2022-10-31T14:05:18.031Z,55.40
2022-10-31T14:07:47.979Z,62.70
2022-10-31T14:10:34.993Z,53.90
2022-10-31T14:13:24.797Z,59.90
2022-10-31T14:16:02.612Z,66.20
2022-10-31T14:18:37.414Z,55.90
2022-10-31T14:21:23.813Z,59.10
2022-10-31T14:23:55.427Z,58.40
2022-10-31T14:26:27.430Z,58.10
2022-10-31T14:29:24.316Z,57.30
2022-10-31T14:31:59.743Z,59.90
2022-10-31T14:34:37.676Z,57.30
2022-10-31T14:37:14.837Z,53.90
2022-10-31T14:39:52.251Z,56.00
2022-10-31T14:42:23.365Z,59.20
2022-10-31T14:45:03.204Z,57.00
2022-10-31T14:48:10.103Z,60.30
2022-10-31T14:51:10.958Z,60.60
2022-10-31T14:53:49.558Z,54.30
2022-10-31T14:56:27.380Z,57.60
2022-10-31T14:58:58.868Z,59.00
2022-10-31T15:01:34.618Z,62.30
2022-10-31T15:04:23.435Z,65.90
2022-10-31T15:07:24.444Z,61.00
2022-10-31T15:10:05.469Z,62.10
2022-10-31T15:12:38.816Z,58.50
2022-10-31T15:15:24.436Z,59.80
2022-10-31T15:18:02.285Z,59.80
2022-10-31T15:20:39.898Z,60.30
2022-10-31T15:23:16.186Z,57.10
2022-10-31T15:25:45.021Z,52.80
2022-10-31T15:28:22.675Z,55.60
2022-10-31T15:30:55.496Z,58.20
2022-10-31T15:33:37.818Z,57.40
2022-10-31T15:36:07.724Z,57.40
2022-10-31T15:38:36.180Z,59.70
2022-10-31T15:41:19.812Z,58.90
2022-10-31T15:43:48.776Z,60.00
2022-10-31T15:46:16.857Z,55.10
2022-10-31T15:48:47.925Z,62.00
2022-10-31T15:51:16.198Z,55.00
2022-10-31T15:53:54.172Z,53.50
2022-10-31T15:56:29.275Z,48.80
2022-10-31T15:58:59.260Z,55.10
2022-10-31T16:01:30.744Z,53.20
2022-10-31T16:04:14.003Z,53.60
2022-10-31T16:06:42.281Z,53.40
2022-10-31T16:09:24.695Z,67.50
2022-10-31T16:11:53.874Z,53.20
2022-10-31T16:14:26.512Z,59.40
2022-10-31T16:16:59.311Z,56.30
2022-10-31T16:19:34.805Z,57.50
2022-10-31T16:22:22.268Z,67.50
2022-10-31T16:24:59.530Z,83.40
2022-10-31T16:27:31.657Z,82.30
2022-10-31T16:30:07.551Z,71.80
2022-10-31T16:32:38.142Z,65.30
2022-10-31T16:35:09.080Z,59.50
2022-10-31T16:37:41.767Z,63.60
2022-10-31T16:40:15.159Z,51.30
2022-10-31T16:42:45.592Z,42.90
2022-10-31T16:45:23.754Z,40.50
2022-10-31T16:47:52.707Z,40.70
2022-10-31T16:50:26.971Z,41.40
2022-10-31T16:55:58.830Z,43.50
2022-10-31T16:58:34.273Z,42.80
2022-10-31T17:01:05.864Z,34.60
2022-10-31T17:03:34.473Z,44.70
2022-10-31T17:06:02.543Z,38.20
2022-10-31T17:08:31.053Z,39.00
2022-10-31T17:11:01.648Z,41.40
2022-10-31T17:13:32.896Z,41.10
2022-10-31T17:16:03.266Z,39.50
2022-10-31T17:18:31.234Z,38.90
2022-10-31T17:21:01.780Z,42.90
2022-10-31T17:23:31.608Z,41.30
2022-10-31T17:26:00.155Z,36.20
2022-10-31T17:28:28.245Z,41.50
2022-10-31T17:30:59.410Z,36.20
2022-10-31T17:33:27.884Z,40.40
2022-10-31T17:35:56.330Z,42.90
2022-10-31T17:38:24.979Z,45.90
2022-10-31T17:40:53.023Z,46.30
2022-10-31T17:43:21.566Z,51.30
2022-10-31T17:45:49.622Z,46.70
2022-10-31T17:48:17.609Z,48.20
2022-10-31T17:50:46.170Z,51.60
2022-10-31T17:53:14.426Z,42.50
2022-10-31T17:55:42.425Z,45.20
2022-10-31T17:58:14.046Z,41.30
2022-10-31T18:00:44.777Z,38.00
2022-10-31T18:03:15.592Z,40.30
2022-10-31T18:05:55.871Z,41.30
2022-10-31T18:08:35.509Z,51.50
2022-10-31T18:11:09.748Z,47.60
2022-10-31T18:13:39.263Z,48.00
2022-10-31T18:16:11.885Z,44.50
2022-10-31T18:18:40.808Z,49.60
2022-10-31T18:21:08.991Z,45.50
2022-10-31T18:23:36.976Z,39.00
2022-10-31T18:26:05.344Z,38.80
2022-10-31T18:28:33.630Z,33.30
2022-10-31T18:31:01.693Z,36.10
2022-10-31T18:33:30.445Z,38.30
2022-10-31T18:36:05.824Z,36.20
2022-10-31T18:38:34.621Z,42.90
2022-10-31T18:41:02.642Z,40.30
2022-10-31T18:43:30.808Z,45.20
2022-10-31T18:46:09.234Z,47.40
2022-10-31T18:48:37.743Z,42.50
2022-10-31T18:51:07.900Z,55.70
2022-10-31T18:53:36.437Z,52.70
2022-10-31T18:56:09.379Z,47.00
2022-10-31T18:58:37.770Z,50.80
2022-10-31T19:01:11.723Z,39.30
2022-10-31T19:03:41.153Z,46.50
2022-10-31T19:06:09.984Z,45.70
2022-10-31T19:08:39.053Z,40.40
2022-10-31T19:11:10.299Z,45.80
2022-10-31T19:13:39.443Z,42.80
2022-10-31T19:16:14.281Z,44.60
2022-10-31T19:18:43.409Z,44.60
2022-10-31T19:21:18.545Z,49.10
2022-10-31T19:23:46.770Z,54.10
2022-10-31T19:26:15.462Z,50.20
2022-10-31T19:28:43.463Z,49.30
2022-10-31T19:31:11.626Z,48.10
2022-10-31T19:33:39.557Z,45.20
2022-10-31T19:36:16.318Z,40.80
2022-10-31T19:38:46.394Z,42.70
2022-10-31T19:41:17.400Z,41.00
2022-10-31T19:43:45.839Z,37.20
2022-10-31T19:46:22.705Z,33.50
2022-10-31T19:49:01.959Z,35.00
2022-10-31T19:51:29.788Z,32.40
2022-10-31T19:53:57.916Z,33.60
2022-10-31T19:56:26.369Z,36.70
2022-10-31T19:58:54.400Z,30.40
2022-10-31T20:01:24.055Z,26.50
2022-10-31T20:03:52.505Z,29.80
2022-10-31T20:06:35.962Z,31.90
2022-10-31T20:09:09.452Z,34.40
2022-10-31T20:11:39.001Z,30.50
2022-10-31T20:14:09.378Z,33.20
2022-10-31T20:16:37.557Z,32.80
2022-10-31T20:19:06.046Z,36.50
2022-10-31T20:21:42.621Z,34.80
2022-10-31T20:24:11.639Z,38.30
2022-10-31T20:26:41.017Z,35.70
2022-10-31T20:29:39.827Z,36.70
2022-10-31T20:32:27.615Z,35.20
2022-10-31T20:35:03.109Z,37.40
2022-10-31T20:37:43.044Z,31.10
2022-10-31T20:40:12.411Z,37.40
2022-10-31T20:42:40.575Z,39.60
2022-10-31T20:45:09.732Z,34.40
2022-10-31T20:47:38.445Z,29.60
2022-10-31T20:50:07.487Z,33.00
2022-10-31T20:52:35.482Z,33.90
2022-10-31T20:55:03.782Z,30.10
2022-10-31T20:57:32.059Z,36.30
2022-10-31T21:00:00.303Z,37.20
2022-10-31T21:02:29.601Z,38.70
2022-10-31T21:04:57.629Z,40.80
2022-10-31T21:07:26.496Z,42.60
2022-10-31T21:09:55.593Z,33.50
2022-10-31T21:12:24.130Z,37.90
2022-10-31T21:14:52.157Z,29.90
2022-10-31T21:17:20.153Z,38.60
2022-10-31T21:19:48.000Z,40.80
2022-10-31T21:22:15.963Z,37.70
2022-10-31T21:24:44.056Z,38.60
2022-10-31T21:27:12.579Z,34.40
2022-10-31T21:29:40.908Z,32.90
2022-10-31T21:32:09.770Z,33.10
2022-10-31T21:34:38.170Z,37.70
2022-10-31T21:37:06.292Z,31.50
2022-10-31T21:39:34.312Z,34.00
2022-10-31T21:42:02.186Z,32.40
2022-10-31T21:44:30.997Z,29.80
2022-10-31T21:46:59.027Z,32.70
2022-10-31T21:49:27.085Z,32.60
2022-10-31T21:51:55.199Z,29.60
2022-10-31T21:54:30.431Z,34.50
2022-10-31T21:56:59.768Z,30.70
2022-10-31T21:59:27.918Z,38.40
2022-10-31T22:01:58.426Z,33.40
2022-10-31T22:04:27.614Z,31.20
2022-10-31T22:06:55.643Z,24.90
2022-10-31T22:09:24.193Z,28.00
2022-10-31T22:11:52.703Z,30.60
2022-10-31T22:14:20.820Z,33.90
2022-10-31T22:16:49.036Z,29.00
2022-10-31T22:19:17.105Z,30.20
2022-10-31T22:21:49.995Z,28.10
2022-10-31T22:24:18.954Z,30.60
2022-10-31T22:26:47.050Z,27.30
2022-10-31T22:29:18.012Z,29.70
2022-10-31T22:31:51.875Z,25.10
2022-10-31T22:34:23.201Z,26.60
2022-10-31T22:36:51.377Z,32.60
2022-10-31T22:39:19.574Z,26.10
2022-10-31T22:41:47.578Z,29.20
2022-10-31T22:44:17.633Z,32.80
2022-10-31T22:46:45.886Z,27.80
2022-10-31T22:49:15.251Z,22.30
2022-10-31T22:51:44.574Z,22.50
2022-10-31T22:54:18.525Z,27.50
2022-10-31T22:56:46.991Z,24.80
2022-10-31T22:59:16.422Z,31.60
2022-10-31T23:01:45.959Z,27.90
2022-10-31T23:04:16.616Z,26.70
2022-10-31T23:06:45.043Z,23.90
2022-10-31T23:09:16.033Z,29.60
2022-10-31T23:11:45.541Z,27.40
2022-10-31T23:14:21.008Z,24.50
2022-10-31T23:16:57.168Z,22.30
2022-10-31T23:19:29.364Z,24.00
2022-10-31T23:22:04.210Z,19.30
2022-10-31T23:24:41.193Z,20.90
2022-10-31T23:27:24.289Z,21.20
2022-10-31T23:29:54.073Z,23.30
2022-10-31T23:32:34.011Z,24.10
2022-10-31T23:35:04.460Z,23.40
2022-10-31T23:37:35.331Z,20.40
2022-10-31T23:40:03.946Z,19.30
2022-10-31T23:42:31.925Z,23.70
2022-10-31T23:45:00.298Z,19.50
2022-10-31T23:47:28.231Z,21.00
2022-10-31T23:49:56.091Z,17.50
2022-10-31T23:52:24.253Z,22.00
2022-10-31T23:54:52.365Z,24.60
2022-10-31T23:57:20.303Z,15.50
2022-10-31T23:59:48.525Z,16.50
